createdAt,value
2022-11-05T00:00:38.478Z,96043.09
2022-11-05T00:03:24.853Z,96052.50
2022-11-05T00:06:13.073Z,96048.16
2022-11-05T00:09:00.334Z,96050.59
2022-11-05T00:11:44.014Z,96056.00
2022-11-05T00:14:30.961Z,96064.22
2022-11-05T00:16:59.957Z,96068.56
2022-11-05T00:19:28.440Z,96066.84
2022-11-05T00:22:15.388Z,96064.00
2022-11-05T00:25:01.367Z,96063.75
2022-11-05T00:27:34.355Z,96086.66
2022-11-05T00:30:07.408Z,96072.56
2022-11-05T00:32:38.440Z,96067.16
2022-11-05T00:35:08.361Z,96085.72
2022-11-05T00:37:37.252Z,96086.88
2022-11-05T00:40:07.078Z,96092.84
2022-11-05T00:42:55.554Z,96092.03
2022-11-05T00:45:24.016Z,96096.97
2022-11-05T00:48:10.223Z,96110.47
2022-11-05T00:50:38.874Z,96104.84
2022-11-05T00:53:08.860Z,96102.84
2022-11-05T00:55:39.750Z,96104.47
2022-11-05T00:58:12.326Z,96112.09
2022-11-05T01:00:44.211Z,96108.56
2022-11-05T01:03:15.308Z,96104.59
2022-11-05T01:05:45.921Z,96105.66
2022-11-05T01:08:15.676Z,96111.16
2022-11-05T01:10:45.793Z,96108.94
2022-11-05T01:13:18.983Z,96110.09
2022-11-05T01:15:48.540Z,96080.19
2022-11-05T01:18:18.839Z,96097.19
2022-11-05T01:20:48.053Z,96106.81
2022-11-05T01:23:17.368Z,96118.91
2022-11-05T01:25:46.180Z,96120.19
2022-11-05T01:28:16.021Z,96123.63
2022-11-05T01:30:44.961Z,96132.28
2022-11-05T01:33:13.745Z,96142.63
2022-11-05T01:35:42.821Z,96143.47
2022-11-05T01:38:11.745Z,96140.16
2022-11-05T01:40:43.926Z,96141.22
2022-11-05T01:43:17.990Z,96141.44
2022-11-05T01:45:49.244Z,96137.81
2022-11-05T01:48:21.236Z,96141.56
2022-11-05T01:50:57.021Z,96114.56
2022-11-05T01:53:31.002Z,96133.84
2022-11-05T01:56:03.436Z,96136.88
2022-11-05T01:58:38.077Z,96142.63
2022-11-05T02:01:07.611Z,96132.88
2022-11-05T02:03:37.534Z,96126.56
2022-11-05T02:06:09.310Z,96132.28
2022-11-05T02:08:53.554Z,96145.09
2022-11-05T02:11:22.861Z,96140.84
2022-11-05T02:13:52.965Z,96127.72
2022-11-05T02:16:33.799Z,96131.25
2022-11-05T02:19:14.981Z,96124.66
2022-11-05T02:22:23.276Z,96129.59
2022-11-05T02:25:20.427Z,96120.69
2022-11-05T02:28:19.493Z,96101.56
2022-11-05T02:30:54.910Z,96137.34
2022-11-05T02:33:34.323Z,96137.44
2022-11-05T02:36:18.720Z,96143.47
2022-11-05T02:38:59.944Z,96140.88
2022-11-05T02:41:49.499Z,96140.06
2022-11-05T02:44:28.818Z,96142.75
2022-11-05T02:47:11.861Z,96148.72
2022-11-05T02:49:49.873Z,96150.38
2022-11-05T02:52:26.829Z,96141.94
2022-11-05T02:55:00.103Z,96154.59
2022-11-05T02:57:30.602Z,96151.66
2022-11-05T03:00:02.729Z,96138.88
2022-11-05T03:02:33.465Z,96154.13
2022-11-05T03:05:04.300Z,96150.00
2022-11-05T03:07:44.282Z,96148.38
2022-11-05T03:10:29.720Z,96169.50
2022-11-05T03:13:07.972Z,96163.50
2022-11-05T03:15:50.059Z,96165.63
2022-11-05T03:18:29.275Z,96170.66
2022-11-05T03:21:05.619Z,96168.78
2022-11-05T03:23:43.062Z,96168.56
2022-11-05T03:26:17.755Z,96165.28
2022-11-05T03:28:50.370Z,96177.34
2022-11-05T03:31:21.064Z,96176.44
2022-11-05T03:33:54.451Z,96192.38
2022-11-05T03:36:28.525Z,96188.69
2022-11-05T03:39:01.197Z,96193.66
2022-11-05T03:41:32.742Z,96205.50
2022-11-05T03:44:06.265Z,96208.44
2022-11-05T03:46:39.669Z,96217.78
2022-11-05T03:49:14.333Z,96225.41
2022-11-05T03:51:47.518Z,96227.19
2022-11-05T03:54:17.027Z,96237.16
2022-11-05T03:56:55.993Z,96230.94
2022-11-05T03:59:25.830Z,96238.75
2022-11-05T04:01:56.348Z,96244.88
2022-11-05T04:04:26.545Z,96235.28
2022-11-05T04:07:13.133Z,96249.00
2022-11-05T04:09:59.108Z,96247.84
2022-11-05T04:12:45.878Z,96250.28
2022-11-05T04:15:14.501Z,96261.31
2022-11-05T04:17:42.088Z,96260.59
2022-11-05T04:20:29.147Z,96257.81
2022-11-05T04:23:19.713Z,96268.22
2022-11-05T04:25:48.278Z,96266.97
2022-11-05T04:28:17.680Z,96261.03
2022-11-05T04:30:46.103Z,96262.91
2022-11-05T04:33:17.104Z,96263.03
2022-11-05T04:35:48.678Z,96269.59
2022-11-05T04:38:19.493Z,96265.78
2022-11-05T04:40:49.026Z,96251.34
2022-11-05T04:43:20.678Z,96270.28
2022-11-05T04:45:50.959Z,96257.84
2022-11-05T04:48:19.421Z,96264.31
2022-11-05T04:50:50.163Z,96270.06
2022-11-05T04:53:18.575Z,96278.38
2022-11-05T04:55:47.483Z,96274.44
2022-11-05T04:58:16.417Z,96274.44
2022-11-05T05:00:44.911Z,96272.16
2022-11-05T05:03:14.327Z,96276.75
2022-11-05T05:05:43.354Z,96281.75
2022-11-05T05:08:13.609Z,96288.16
2022-11-05T05:10:42.026Z,96287.22
2022-11-05T05:13:12.849Z,96286.84
2022-11-05T05:15:41.585Z,96295.91
2022-11-05T05:18:10.186Z,96297.78
2022-11-05T05:20:56.340Z,96286.75
2022-11-05T05:23:26.175Z,96299.44
2022-11-05T05:25:55.434Z,96302.59
2022-11-05T05:28:23.844Z,96308.81
2022-11-05T05:30:57.604Z,96315.59
2022-11-05T05:33:27.181Z,96308.09
2022-11-05T05:35:58.299Z,96308.88
2022-11-05T05:38:28.727Z,96308.72
2022-11-05T05:40:59.266Z,96306.84
2022-11-05T05:43:30.587Z,96308.28
2022-11-05T05:46:02.775Z,96311.13
2022-11-05T05:48:31.695Z,96310.53
2022-11-05T05:51:03.898Z,96318.19
2022-11-05T05:53:34.250Z,96327.56
2022-11-05T05:56:03.027Z,96326.03
2022-11-05T05:58:33.966Z,96327.09
2022-11-05T06:01:03.527Z,96326.84
2022-11-05T06:03:32.000Z,96327.25
2022-11-05T06:06:04.567Z,96332.84
2022-11-05T06:08:34.807Z,96336.59
2022-11-05T06:11:05.327Z,96333.22
2022-11-05T06:13:33.929Z,96339.19
2022-11-05T06:16:03.314Z,96345.88
2022-11-05T06:18:32.272Z,96348.34
2022-11-05T06:21:02.899Z,96349.19
2022-11-05T06:23:32.156Z,96353.75
2022-11-05T06:26:02.928Z,96361.50
2022-11-05T06:28:31.764Z,96365.22
2022-11-05T06:31:01.663Z,96365.38
2022-11-05T06:33:30.662Z,96369.47
2022-11-05T06:35:59.783Z,96366.50
2022-11-05T06:38:29.857Z,96383.66
2022-11-05T06:40:59.751Z,96386.78
2022-11-05T06:43:30.804Z,96392.97
2022-11-05T06:46:02.095Z,96395.19
2022-11-05T06:48:30.712Z,96394.16
2022-11-05T06:50:59.714Z,96392.00
2022-11-05T06:53:28.892Z,96387.50
2022-11-05T06:55:57.739Z,96392.72
2022-11-05T06:58:26.754Z,96397.44
2022-11-05T07:01:01.888Z,96406.34
2022-11-05T07:03:30.854Z,96401.66
2022-11-05T07:06:01.501Z,96420.22
2022-11-05T07:08:32.882Z,96422.03
2022-11-05T07:11:02.159Z,96424.41
2022-11-05T07:13:30.726Z,96432.41
2022-11-05T07:16:01.381Z,96433.84
2022-11-05T07:18:29.765Z,96438.75
2022-11-05T07:21:00.687Z,96445.13
2022-11-05T07:23:29.584Z,96447.84
2022-11-05T07:25:58.515Z,96447.47
2022-11-05T07:28:27.036Z,96454.88
2022-11-05T07:30:55.671Z,96459.84
2022-11-05T07:33:26.426Z,96456.91
2022-11-05T07:35:57.485Z,96440.88
2022-11-05T07:38:26.791Z,96465.97
2022-11-05T07:40:55.613Z,96461.16
2022-11-05T07:43:25.423Z,96464.69
2022-11-05T07:45:54.358Z,96459.06
2022-11-05T07:48:23.946Z,96461.06
2022-11-05T07:50:54.709Z,96462.88
2022-11-05T07:53:24.414Z,96469.44
2022-11-05T07:55:54.034Z,96473.59
2022-11-05T07:58:23.602Z,96453.56
2022-11-05T08:00:53.575Z,96477.84
2022-11-05T08:03:23.132Z,96477.59
2022-11-05T08:05:54.182Z,96480.88
2022-11-05T08:08:23.475Z,96483.97
2022-11-05T08:10:52.616Z,96480.22
2022-11-05T08:13:21.036Z,96487.84
2022-11-05T08:15:49.882Z,96493.03
2022-11-05T08:18:19.211Z,96489.63
2022-11-05T08:20:48.374Z,96497.41
2022-11-05T08:23:18.625Z,96496.03
2022-11-05T08:25:47.060Z,96496.16
2022-11-05T08:28:16.014Z,96494.88
2022-11-05T08:30:44.551Z,96494.78
2022-11-05T08:33:14.856Z,96498.41
2022-11-05T08:35:44.011Z,96497.13
2022-11-05T08:38:14.682Z,96494.06
2022-11-05T08:40:46.404Z,96500.53
2022-11-05T08:43:15.612Z,96494.28
2022-11-05T08:45:45.148Z,96500.53
2022-11-05T08:48:15.463Z,96499.13
2022-11-05T08:50:45.640Z,96491.69
2022-11-05T08:53:15.571Z,96495.94
2022-11-05T08:55:47.801Z,96497.13
2022-11-05T08:58:17.514Z,96504.53
2022-11-05T09:00:48.291Z,96507.13
2022-11-05T09:03:17.959Z,96504.69
2022-11-05T09:05:46.605Z,96503.06
2022-11-05T09:08:16.748Z,96509.06
2022-11-05T09:10:50.156Z,96506.38
2022-11-05T09:13:20.115Z,96505.66
2022-11-05T09:15:49.236Z,96496.94
2022-11-05T09:18:19.410Z,96509.41
2022-11-05T09:20:49.140Z,96504.00
2022-11-05T09:23:18.840Z,96521.31
2022-11-05T09:25:49.292Z,96515.53
2022-11-05T09:28:21.801Z,96514.00
2022-11-05T09:30:52.459Z,96523.78
2022-11-05T09:33:24.427Z,96527.06
2022-11-05T09:35:54.596Z,96525.41
2022-11-05T09:38:23.710Z,96529.44
2022-11-05T09:40:58.532Z,96520.72
2022-11-05T09:43:32.186Z,96531.53
2022-11-05T09:46:07.420Z,96535.75
2022-11-05T09:48:39.250Z,96534.56
2022-11-05T09:51:08.024Z,96532.47
2022-11-05T09:53:42.569Z,96524.56
2022-11-05T09:56:22.073Z,96531.97
2022-11-05T09:58:56.293Z,96535.03
2022-11-05T10:01:29.277Z,96540.94
2022-11-05T10:04:02.562Z,96548.22
2022-11-05T10:06:31.024Z,96549.75
2022-11-05T10:09:07.449Z,96552.94
2022-11-05T10:11:42.739Z,96552.13
2022-11-05T10:14:18.021Z,96559.56
2022-11-05T10:16:53.310Z,96557.75
2022-11-05T10:19:25.636Z,96538.25
2022-11-05T10:22:11.494Z,96565.31
2022-11-05T10:24:43.876Z,96566.03
2022-11-05T10:27:18.501Z,96563.91
2022-11-05T10:29:48.467Z,96563.09
2022-11-05T10:32:26.885Z,96563.66
2022-11-05T10:34:57.391Z,96568.84
2022-11-05T10:37:26.359Z,96559.19
2022-11-05T10:39:55.913Z,96564.25
2022-11-05T10:42:41.407Z,96568.59
2022-11-05T10:45:23.652Z,96571.28
2022-11-05T10:48:07.188Z,96574.25
2022-11-05T10:50:35.774Z,96574.50
2022-11-05T10:53:13.738Z,96576.72
2022-11-05T10:55:44.834Z,96579.06
2022-11-05T10:58:21.757Z,96574.00
2022-11-05T11:01:06.263Z,96574.00
2022-11-05T11:03:42.614Z,96573.50
2022-11-05T11:06:22.130Z,96574.44
2022-11-05T11:08:52.747Z,96573.75
2022-11-05T11:11:31.248Z,96577.16
2022-11-05T11:14:04.631Z,96575.47
2022-11-05T11:16:39.888Z,96578.78
2022-11-05T11:19:26.061Z,96572.06
2022-11-05T11:22:28.241Z,96578.78
2022-11-05T11:24:56.774Z,96574.66
2022-11-05T11:27:29.422Z,96579.25
2022-11-05T11:30:01.177Z,96584.53
2022-11-05T11:32:35.615Z,96573.56
2022-11-05T11:35:06.609Z,96587.66
2022-11-05T11:37:42.381Z,96577.88
2022-11-05T11:40:17.450Z,96576.69
2022-11-05T11:42:48.939Z,96590.09
2022-11-05T11:45:25.104Z,96590.03
2022-11-05T11:47:53.950Z,96588.03
2022-11-05T11:50:39.475Z,96592.34
2022-11-05T11:53:23.644Z,96584.88
2022-11-05T11:56:00.798Z,96593.53
2022-11-05T11:58:45.244Z,96589.69
2022-11-05T12:01:48.028Z,96593.72
2022-11-05T12:04:37.448Z,96588.28
2022-11-05T12:07:23.776Z,96592.38
2022-11-05T12:10:19.257Z,96598.47
2022-11-05T12:12:56.771Z,96595.44
2022-11-05T12:15:45.449Z,96589.88
2022-11-05T12:18:26.574Z,96592.97
2022-11-05T12:21:07.211Z,96590.84
2022-11-05T12:24:15.839Z,96592.94
2022-11-05T12:26:56.822Z,96587.34
2022-11-05T12:29:47.661Z,96582.34
2022-11-05T12:32:52.808Z,96591.00
2022-11-05T12:35:44.183Z,96593.25
2022-11-05T12:38:28.007Z,96603.38
2022-11-05T12:41:17.260Z,96599.09
2022-11-05T12:44:00.494Z,96595.06
2022-11-05T12:46:38.537Z,96594.38
2022-11-05T12:49:31.449Z,96596.91
2022-11-05T12:52:22.953Z,96603.66
2022-11-05T12:55:03.684Z,96606.91
2022-11-05T12:57:35.567Z,96604.75
2022-11-05T13:00:11.069Z,96604.59
2022-11-05T13:02:48.949Z,96608.06
2022-11-05T13:05:21.027Z,96618.75
2022-11-05T13:07:58.115Z,96618.59
2022-11-05T13:10:32.289Z,96616.50
2022-11-05T13:13:07.472Z,96617.72
2022-11-05T13:15:40.982Z,96613.75
2022-11-05T13:18:15.951Z,96615.78
2022-11-05T13:20:50.696Z,96610.44
2022-11-05T13:23:26.748Z,96611.63
2022-11-05T13:26:00.683Z,96609.22
2022-11-05T13:28:39.943Z,96617.53
2022-11-05T13:31:14.517Z,96614.66
2022-11-05T13:33:47.584Z,96609.19
2022-11-05T13:36:39.433Z,96617.59
2022-11-05T13:39:18.235Z,96615.91
2022-11-05T13:42:01.118Z,96613.66
2022-11-05T13:45:04.822Z,96623.00
2022-11-05T13:47:50.614Z,96617.53
2022-11-05T13:50:46.198Z,96611.63
2022-11-05T13:53:39.642Z,96615.25
2022-11-05T13:56:23.399Z,96623.06
2022-11-05T13:59:04.156Z,96618.66
2022-11-05T14:01:45.703Z,96621.88
2022-11-05T14:04:28.534Z,96626.38
2022-11-05T14:07:11.573Z,96630.34
2022-11-05T14:09:41.346Z,96632.19
2022-11-05T14:12:22.783Z,96633.19
2022-11-05T14:14:58.913Z,96625.38
2022-11-05T14:17:33.396Z,96624.81
2022-11-05T14:20:27.686Z,96632.16
2022-11-05T14:23:37.851Z,96631.41
2022-11-05T14:26:23.002Z,96628.53
2022-11-05T14:29:08.194Z,96644.91
2022-11-05T14:32:09.220Z,96639.63
2022-11-05T14:34:48.458Z,96640.84
2022-11-05T14:37:29.999Z,96648.94
2022-11-05T14:40:24.709Z,96644.13
2022-11-05T14:42:57.473Z,96647.66
2022-11-05T14:45:30.661Z,96651.47
2022-11-05T14:48:01.578Z,96654.56
2022-11-05T14:50:38.420Z,96658.13
2022-11-05T14:53:27.745Z,96657.28
2022-11-05T14:56:01.541Z,96653.41
2022-11-05T14:58:36.698Z,96656.31
2022-11-05T15:01:08.792Z,96657.94
2022-11-05T15:04:03.595Z,96664.09
2022-11-05T15:06:35.570Z,96672.13
2022-11-05T15:09:28.211Z,96669.34
2022-11-05T15:12:09.329Z,96667.09
2022-11-05T15:14:42.743Z,96666.66
2022-11-05T15:17:18.748Z,96681.88
2022-11-05T15:19:48.651Z,96680.22
2022-11-05T15:22:30.491Z,96680.22
2022-11-05T15:25:00.530Z,96683.44
2022-11-05T15:27:45.982Z,96679.66
2022-11-05T15:30:22.868Z,96684.97
2022-11-05T15:32:51.642Z,96685.34
2022-11-05T15:35:27.083Z,96692.53
2022-11-05T15:38:01.989Z,96686.53
2022-11-05T15:40:33.523Z,96687.38
2022-11-05T15:43:09.898Z,96696.00
2022-11-05T15:45:40.136Z,96697.50
2022-11-05T15:48:16.981Z,96698.00
2022-11-05T15:50:46.679Z,96699.78
2022-11-05T15:53:44.324Z,96701.41
2022-11-05T15:56:15.989Z,96707.34
2022-11-05T15:58:48.654Z,96700.72
2022-11-05T16:01:28.321Z,96693.91
2022-11-05T16:04:07.069Z,96704.88
2022-11-05T16:06:41.209Z,96701.22
2022-11-05T16:09:22.884Z,96708.84
2022-11-05T16:12:12.690Z,96715.34
2022-11-05T16:14:42.317Z,96700.25
2022-11-05T16:17:24.091Z,96715.09
2022-11-05T16:19:53.657Z,96699.81
2022-11-05T16:22:23.528Z,96713.13
2022-11-05T16:24:52.051Z,96718.28
2022-11-05T16:27:23.317Z,96721.81
2022-11-05T16:29:54.271Z,96732.91
2022-11-05T16:32:30.768Z,96727.72
2022-11-05T16:35:02.048Z,96734.44
2022-11-05T16:37:36.597Z,96736.19
2022-11-05T16:40:14.227Z,96725.47
2022-11-05T16:42:42.957Z,96745.75
2022-11-05T16:45:15.422Z,96743.75
2022-11-05T16:47:46.977Z,96751.19
2022-11-05T16:50:22.973Z,96759.31
2022-11-05T16:52:52.391Z,96748.34
2022-11-05T16:55:22.140Z,96752.09
2022-11-05T16:57:54.607Z,96754.34
2022-11-05T17:00:24.419Z,96752.44
2022-11-05T17:02:55.205Z,96750.09
2022-11-05T17:05:26.142Z,96763.53
2022-11-05T17:07:54.878Z,96771.16
2022-11-05T17:10:25.163Z,96763.53
2022-11-05T17:12:54.232Z,96767.63
2022-11-05T17:15:26.034Z,96772.22
2022-11-05T17:17:56.933Z,96748.19
2022-11-05T17:20:36.709Z,96774.75
2022-11-05T17:23:10.766Z,96781.44
2022-11-05T17:25:39.754Z,96777.56
2022-11-05T17:28:09.996Z,96771.41
2022-11-05T17:30:41.446Z,96787.88
2022-11-05T17:33:12.967Z,96784.59
2022-11-05T17:35:42.927Z,96797.78
2022-11-05T17:38:12.023Z,96790.91
2022-11-05T17:40:41.165Z,96805.75
2022-11-05T17:43:10.693Z,96805.19
2022-11-05T17:45:44.122Z,96803.63
2022-11-05T17:48:14.675Z,96800.69
2022-11-05T17:50:44.138Z,96800.94
2022-11-05T17:53:15.133Z,96802.00
2022-11-05T17:55:45.308Z,96799.97
2022-11-05T17:58:15.418Z,96805.63
2022-11-05T18:00:49.122Z,96822.09
2022-11-05T18:03:18.895Z,96819.03
2022-11-05T18:05:47.804Z,96822.19
2022-11-05T18:08:16.213Z,96821.13
2022-11-05T18:10:45.437Z,96821.38
2022-11-05T18:13:14.170Z,96825.72
2022-11-05T18:15:44.111Z,96831.38
2022-11-05T18:18:12.523Z,96806.59
2022-11-05T18:20:44.093Z,96826.19
2022-11-05T18:23:13.610Z,96827.69
2022-11-05T18:25:42.685Z,96832.88
2022-11-05T18:28:11.866Z,96823.81
2022-11-05T18:30:40.975Z,96832.13
2022-11-05T18:33:10.171Z,96828.84
2022-11-05T18:35:44.611Z,96830.97
2022-11-05T18:38:13.595Z,96829.53
2022-11-05T18:40:42.897Z,96832.63
2022-11-05T18:43:11.927Z,96837.78
2022-11-05T18:45:41.531Z,96836.38
2022-11-05T18:48:11.271Z,96838.25
2022-11-05T18:50:41.969Z,96833.91
2022-11-05T18:53:10.453Z,96839.31
2022-11-05T18:55:40.318Z,96831.38
2022-11-05T18:58:09.062Z,96843.06
2022-11-05T19:00:40.650Z,96840.97
2022-11-05T19:03:09.563Z,96842.22
2022-11-05T19:05:38.671Z,96838.94
2022-11-05T19:08:08.606Z,96846.47
2022-11-05T19:10:41.151Z,96837.13
2022-11-05T19:13:10.190Z,96846.22
2022-11-05T19:15:42.526Z,96854.81
2022-11-05T19:18:12.089Z,96850.66
2022-11-05T19:20:40.813Z,96853.59
2022-11-05T19:23:10.572Z,96852.78
2022-11-05T19:25:39.881Z,96849.25
2022-11-05T19:28:09.167Z,96848.50
2022-11-05T19:30:38.835Z,96834.59
2022-11-05T19:33:07.291Z,96853.09
2022-11-05T19:35:40.849Z,96841.06
2022-11-05T19:38:11.813Z,96845.28
2022-11-05T19:40:40.338Z,96840.75
2022-11-05T19:43:09.376Z,96849.75
2022-11-05T19:45:44.736Z,96849.16
2022-11-05T19:48:19.141Z,96850.22
2022-11-05T19:50:48.777Z,96858.63
2022-11-05T19:53:18.602Z,96860.72
2022-11-05T19:55:47.598Z,96866.75
2022-11-05T19:58:17.476Z,96847.19
2022-11-05T20:00:46.561Z,96866.06
2022-11-05T20:03:15.498Z,96862.19
2022-11-05T20:05:44.321Z,96863.72
2022-11-05T20:08:14.019Z,96872.66
2022-11-05T20:10:44.117Z,96876.84
2022-11-05T20:13:18.550Z,96876.13
2022-11-05T20:15:49.267Z,96881.16
2022-11-05T20:18:18.832Z,96877.56
2022-11-05T20:20:48.444Z,96882.53
2022-11-05T20:23:16.837Z,96873.97
2022-11-05T20:25:47.254Z,96871.88
2022-11-05T20:28:15.797Z,96878.13
2022-11-05T20:30:44.718Z,96875.19
2022-11-05T20:33:13.645Z,96886.81
2022-11-05T20:35:42.826Z,96879.00
2022-11-05T20:38:11.610Z,96886.88
2022-11-05T20:40:40.529Z,96885.44
2022-11-05T20:43:10.812Z,96884.41
2022-11-05T20:45:39.677Z,96876.13
2022-11-05T20:48:08.158Z,96876.56
2022-11-05T20:50:40.916Z,96870.41
2022-11-05T20:53:09.673Z,96883.47
2022-11-05T20:55:43.024Z,96885.94
2022-11-05T20:58:14.224Z,96886.38
2022-11-05T21:00:49.645Z,96869.63
2022-11-05T21:03:19.020Z,96893.63
2022-11-05T21:05:47.635Z,96896.91
2022-11-05T21:08:16.192Z,96890.69
2022-11-05T21:10:51.046Z,96879.69
2022-11-05T21:13:21.735Z,96874.44
2022-11-05T21:15:52.040Z,96884.78
2022-11-05T21:18:22.496Z,96887.50
2022-11-05T21:20:52.704Z,96883.75
2022-11-05T21:23:21.398Z,96890.38
2022-11-05T21:25:50.550Z,96890.16
2022-11-05T21:28:18.927Z,96892.84
2022-11-05T21:30:49.763Z,96897.66
2022-11-05T21:33:20.016Z,96892.63
2022-11-05T21:35:49.571Z,96894.72
2022-11-05T21:38:18.750Z,96899.31
2022-11-05T21:40:48.158Z,96898.47
2022-11-05T21:43:17.787Z,96900.78
2022-11-05T21:45:46.583Z,96890.19
2022-11-05T21:48:16.427Z,96891.03
2022-11-05T21:51:02.218Z,96893.34
2022-11-05T21:53:48.787Z,96885.28
2022-11-05T21:56:37.115Z,96883.59
2022-11-05T21:59:24.304Z,96886.31
2022-11-05T22:02:02.032Z,96892.38
2022-11-05T22:04:33.207Z,96890.09
2022-11-05T22:07:02.676Z,96892.44
2022-11-05T22:09:31.237Z,96888.69
2022-11-05T22:12:00.585Z,96887.25
2022-11-05T22:14:30.039Z,96886.47
2022-11-05T22:16:59.586Z,96867.06
2022-11-05T22:19:28.234Z,96868.94
2022-11-05T22:21:58.060Z,96894.22
2022-11-05T22:24:28.001Z,96886.56
2022-11-05T22:26:56.790Z,96886.97
2022-11-05T22:29:25.642Z,96893.66
2022-11-05T22:31:54.123Z,96894.09
2022-11-05T22:34:23.078Z,96894.72
2022-11-05T22:36:51.838Z,96886.44
2022-11-05T22:39:22.498Z,96892.88
2022-11-05T22:41:54.664Z,96890.84
2022-11-05T22:44:24.429Z,96897.53
2022-11-05T22:46:53.527Z,96903.97
2022-11-05T22:49:22.440Z,96909.59
2022-11-05T22:51:52.190Z,96900.66
2022-11-05T22:54:21.932Z,96899.63
2022-11-05T22:56:53.058Z,96903.13
2022-11-05T22:59:21.527Z,96899.22
2022-11-05T23:01:50.834Z,96896.53
2022-11-05T23:04:19.881Z,96886.84
2022-11-05T23:07:06.119Z,96906.31
2022-11-05T23:09:54.030Z,96898.00
2022-11-05T23:12:31.776Z,96893.41
2022-11-05T23:15:02.766Z,96901.50
2022-11-05T23:17:48.640Z,96903.59
2022-11-05T23:20:37.891Z,96886.41
2022-11-05T23:23:25.195Z,96900.72
2022-11-05T23:25:59.040Z,96896.16
2022-11-05T23:28:27.701Z,96862.19
2022-11-05T23:31:10.452Z,96894.50
2022-11-05T23:33:38.881Z,96891.59
2022-11-05T23:36:25.589Z,96893.91
2022-11-05T23:38:54.499Z,96888.53
2022-11-05T23:41:41.802Z,96891.69
2022-11-05T23:44:28.499Z,96895.81
2022-11-05T23:47:14.501Z,96882.78
2022-11-05T23:49:43.691Z,96886.91
2022-11-05T23:52:12.607Z,96885.72
2022-11-05T23:54:41.068Z,96894.84
2022-11-05T23:57:11.683Z,96889.03
2022-11-05T23:59:40.558Z,96896.31
